Time;durP1;ratioP1;P1;durP2;ratioP2;P2;SDS_P1;SDS_P2;PMS_P1;PMS_P2;Temp;Humidity;BMP_temperature;BMP_pressure;BME280_temperature;BME280_humidity;BME280_pressure;Samples;Min_cycle;Max_cycle;Signal;HPM_P1;HPM_P2
2023/08/17 00:00:38;;;;;;;3.13;2.50;;;14.40;99.90;;;;;;5085461;28;20213;-71
2023/08/17 00:03:09;;;;;;;2.63;2.13;;;14.50;99.90;;;;;;5092496;28;20196;-71
2023/08/17 00:05:40;;;;;;;3.28;2.28;;;14.60;99.90;;;;;;5083092;28;20197;-72
2023/08/17 00:08:11;;;;;;;3.38;2.50;;;14.70;99.90;;;;;;5091498;28;20204;-71
2023/08/17 00:10:41;;;;;;;2.47;1.90;;;14.80;99.90;;;;;;5081096;28;20617;-71
2023/08/17 00:13:14;;;;;;;2.78;2.30;;;15.00;99.90;;;;;;5092722;28;20632;-71
2023/08/17 00:15:45;;;;;;;2.17;1.98;;;15.10;99.90;;;;;;5079996;28;20189;-71
2023/08/17 00:18:15;;;;;;;2.50;2.17;;;15.20;99.90;;;;;;5085436;28;20725;-71
2023/08/17 00:20:46;;;;;;;3.53;2.00;;;15.40;99.90;;;;;;5076721;28;20299;-71
2023/08/17 00:23:17;;;;;;;3.40;2.00;;;15.50;99.90;;;;;;5078211;28;20275;-71
2023/08/17 00:25:48;;;;;;;2.53;2.25;;;15.60;99.90;;;;;;5074727;28;20189;-71
2023/08/17 00:28:20;;;;;;;3.13;1.95;;;15.60;99.90;;;;;;5076262;28;20205;-70
2023/08/17 00:30:51;;;;;;;3.53;2.47;;;15.70;99.90;;;;;;5081348;28;20668;-71
2023/08/17 00:33:22;;;;;;;2.08;1.88;;;15.80;99.90;;;;;;5087787;28;20192;-70
2023/08/17 00:35:52;;;;;;;1.90;1.75;;;15.90;99.90;;;;;;5078824;28;20652;-70
2023/08/17 00:38:23;;;;;;;3.25;2.00;;;16.10;99.90;;;;;;5078879;28;20223;-71
2023/08/17 00:40:55;;;;;;;3.65;1.80;;;16.20;99.90;;;;;;5085992;28;20689;-71
2023/08/17 00:43:27;;;;;;;2.13;1.80;;;16.30;99.90;;;;;;5085721;28;20201;-72
2023/08/17 00:45:58;;;;;;;3.15;1.80;;;16.40;99.90;;;;;;5088285;28;20195;-71
2023/08/17 00:48:31;;;;;;;3.33;2.00;;;16.50;99.90;;;;;;5079642;28;20193;-71
2023/08/17 00:51:02;;;;;;;4.05;1.70;;;16.70;99.90;;;;;;5077280;28;20196;-71
2023/08/17 00:53:34;;;;;;;7.10;1.85;;;16.80;99.90;;;;;;5078096;28;20216;-71
2023/08/17 00:56:07;;;;;;;1.58;1.40;;;16.90;99.90;;;;;;5080931;28;20193;-71
2023/08/17 00:58:39;;;;;;;1.80;1.60;;;16.90;99.90;;;;;;5079945;28;20278;-72
2023/08/17 01:01:10;;;;;;;2.20;1.40;;;17.00;99.90;;;;;;5088620;28;20671;-71
2023/08/17 01:03:42;;;;;;;1.98;1.40;;;17.10;99.90;;;;;;5077170;28;20205;-72
2023/08/17 01:06:14;;;;;;;1.58;1.40;;;17.20;99.90;;;;;;5084397;28;20283;-72
2023/08/17 01:08:46;;;;;;;2.40;1.70;;;17.30;99.90;;;;;;5077263;28;20192;-71
2023/08/17 01:11:24;;;;;;;3.78;1.38;;;17.40;99.90;;;;;;5079894;28;20236;-71
2023/08/17 01:14:02;;;;;;;1.42;1.20;;;17.50;99.90;;;;;;5084494;28;20206;-71
2023/08/17 01:16:37;;;;;;;1.10;1.00;;;17.60;99.90;;;;;;5084265;28;20192;-71
2023/08/17 01:19:12;;;;;;;1.70;1.20;;;17.80;99.90;;;;;;5093529;28;20212;-71
2023/08/17 01:21:51;;;;;;;2.30;1.30;;;17.80;99.90;;;;;;5093393;28;20220;-71
2023/08/17 01:24:24;;;;;;;1.60;1.17;;;17.80;99.90;;;;;;5093288;28;20652;-71
2023/08/17 01:26:55;;;;;;;2.25;1.50;;;17.90;99.90;;;;;;5093104;28;20636;-72
2023/08/17 01:29:26;;;;;;;2.80;1.10;;;18.00;99.90;;;;;;5093385;28;20184;-72
2023/08/17 01:32:04;;;;;;;1.42;1.00;;;18.10;99.90;;;;;;5093847;28;20236;-72
2023/08/17 01:34:39;;;;;;;2.42;1.20;;;18.10;99.90;;;;;;5093508;28;20188;-72
2023/08/17 01:37:12;;;;;;;3.30;1.90;;;18.20;99.90;;;;;;5093343;28;20195;-72
2023/08/17 01:39:47;;;;;;;3.22;1.30;;;18.30;99.90;;;;;;5093433;28;20196;-72
2023/08/17 01:42:19;;;;;;;2.63;1.50;;;18.30;99.90;;;;;;5093153;28;20211;-72
2023/08/17 01:44:50;;;;;;;3.00;1.20;;;18.40;99.90;;;;;;5093282;28;20199;-72
2023/08/17 01:47:24;;;;;;;0.90;0.90;;;18.40;99.90;;;;;;5093170;28;20188;-72
2023/08/17 01:49:59;;;;;;;2.20;1.00;;;18.40;99.90;;;;;;5092320;28;20194;-72
2023/08/17 01:52:31;;;;;;;1.15;1.05;;;18.60;99.90;;;;;;5093528;28;20195;-72
2023/08/17 01:55:04;;;;;;;1.38;1.20;;;18.60;99.90;;;;;;5092804;28;20203;-72
2023/08/17 01:57:35;;;;;;;3.47;1.30;;;18.70;99.90;;;;;;5093185;28;20196;-72
2023/08/17 02:00:06;;;;;;;2.20;1.67;;;18.90;99.90;;;;;;5092953;28;20199;-72
2023/08/17 02:02:37;;;;;;;2.17;1.20;;;18.90;99.90;;;;;;5093027;28;20215;-72
2023/08/17 02:05:08;;;;;;;1.70;1.25;;;19.00;99.90;;;;;;5093227;28;20570;-72
2023/08/17 02:07:39;;;;;;;1.75;1.30;;;19.00;99.90;;;;;;5093366;28;20188;-72
2023/08/17 02:10:12;;;;;;;1.98;1.60;;;19.00;99.90;;;;;;5092798;28;20630;-72
2023/08/17 02:12:43;;;;;;;2.95;2.25;;;18.90;99.90;;;;;;5093159;28;20239;-72
2023/08/17 02:15:14;;;;;;;4.05;1.42;;;19.00;99.90;;;;;;5092733;28;20188;-71
2023/08/17 02:17:45;;;;;;;6.03;2.55;;;19.10;99.90;;;;;;5092742;28;20196;-71
2023/08/17 02:20:16;;;;;;;2.15;1.58;;;19.10;99.90;;;;;;5092944;28;20192;-72
2023/08/17 02:22:46;;;;;;;6.85;2.60;;;19.20;99.90;;;;;;5092872;28;20220;-72
2023/08/17 02:25:19;;;;;;;4.95;2.50;;;19.30;99.90;;;;;;5092744;28;20192;-72
2023/08/17 02:27:50;;;;;;;3.13;1.60;;;19.30;99.90;;;;;;5092899;28;20208;-72
2023/08/17 02:30:21;;;;;;;3.15;1.48;;;19.40;99.90;;;;;;5092991;28;20189;-71
2023/08/17 02:32:51;;;;;;;4.65;1.70;;;19.50;99.90;;;;;;5092977;28;20208;-72
2023/08/17 02:35:22;;;;;;;2.78;1.45;;;19.60;99.90;;;;;;5093310;28;20228;-72
2023/08/17 02:37:53;;;;;;;4.38;1.73;;;19.60;99.90;;;;;;5092967;28;20192;-71
2023/08/17 02:40:25;;;;;;;3.47;2.50;;;19.70;99.90;;;;;;5092655;28;20628;-72
2023/08/17 02:42:56;;;;;;;4.40;1.80;;;19.70;99.90;;;;;;5092770;28;20688;-71
2023/08/17 02:45:27;;;;;;;1.92;1.45;;;19.60;99.90;;;;;;5093041;28;20647;-72
2023/08/17 02:47:58;;;;;;;2.58;1.38;;;19.60;99.90;;;;;;5092904;28;20196;-72
2023/08/17 02:50:28;;;;;;;3.60;1.95;;;19.50;99.90;;;;;;5092863;28;20279;-72
2023/08/17 02:52:59;;;;;;;1.98;1.42;;;19.50;99.90;;;;;;5093017;28;20262;-72
2023/08/17 02:55:32;;;;;;;4.10;1.25;;;19.40;99.90;;;;;;5092848;28;20188;-72
2023/08/17 02:58:03;;;;;;;1.38;1.10;;;19.50;99.90;;;;;;5092602;28;20195;-72
2023/08/17 03:00:33;;;;;;;1.90;1.10;;;19.50;99.90;;;;;;5094025;28;20188;-71
2023/08/17 03:03:04;;;;;;;1.58;1.20;;;19.50;99.90;;;;;;5095990;28;20239;-71
2023/08/17 03:05:35;;;;;;;1.75;1.10;;;19.60;99.90;;;;;;5096018;28;20299;-72
2023/08/17 03:08:07;;;;;;;1.33;0.93;;;19.70;99.90;;;;;;5095928;28;20193;-71
2023/08/17 03:10:41;;;;;;;1.20;0.80;;;19.70;99.90;;;;;;5095853;28;20599;-71
2023/08/17 03:13:12;;;;;;;0.98;0.80;;;19.80;99.90;;;;;;5095839;28;20219;-72
2023/08/17 03:15:42;;;;;;;2.78;0.85;;;19.90;99.90;;;;;;5095950;28;20643;-71
2023/08/17 03:18:13;;;;;;;1.90;0.80;;;20.00;99.90;;;;;;5095864;28;20185;-71
2023/08/17 03:20:44;;;;;;;0.93;0.68;;;20.10;99.90;;;;;;5095931;28;20555;-71
2023/08/17 03:23:14;;;;;;;2.83;0.73;;;20.10;99.90;;;;;;5095370;28;20219;-71
2023/08/17 03:25:47;;;;;;;1.20;0.70;;;20.20;99.90;;;;;;5095816;28;20196;-72
2023/08/17 03:28:18;;;;;;;1.15;0.80;;;20.10;99.90;;;;;;5095831;28;20242;-72
2023/08/17 03:30:49;;;;;;;0.70;0.70;;;19.90;99.90;;;;;;5095726;28;20558;-72
2023/08/17 03:33:19;;;;;;;1.10;0.80;;;19.70;99.90;;;;;;5095732;28;20555;-72
2023/08/17 03:35:50;;;;;;;1.60;0.93;;;19.60;99.90;;;;;;5095609;28;20192;-72
2023/08/17 03:38:21;;;;;;;1.60;0.80;;;19.60;99.90;;;;;;5095268;28;20185;-71
2023/08/17 03:40:53;;;;;;;1.05;0.73;;;19.60;99.90;;;;;;5095521;28;20195;-71
2023/08/17 03:43:25;;;;;;;1.17;0.75;;;19.70;99.90;;;;;;5095369;28;20693;-72
2023/08/17 03:45:56;;;;;;;0.70;0.63;;;19.90;99.90;;;;;;5095521;28;20193;-72
2023/08/17 03:48:27;;;;;;;2.30;1.00;;;20.00;99.90;;;;;;5095289;28;20632;-72
2023/08/17 03:50:58;;;;;;;1.10;0.85;;;19.90;99.90;;;;;;5095361;28;20192;-72
2023/08/17 03:53:29;;;;;;;2.40;1.00;;;19.90;99.90;;;;;;5095446;28;20196;-72
2023/08/17 03:56:02;;;;;;;1.67;1.10;;;19.90;99.90;;;;;;5095145;28;20189;-71
2023/08/17 03:58:34;;;;;;;3.50;1.27;;;19.90;99.90;;;;;;5095204;28;20220;-71
2023/08/17 04:01:06;;;;;;;4.93;1.38;;;20.00;99.90;;;;;;5095107;28;20195;-72
2023/08/17 04:03:37;;;;;;;2.53;0.80;;;20.10;99.90;;;;;;5094915;28;20220;-72
2023/08/17 04:06:11;;;;;;;1.02;0.65;;;20.40;99.90;;;;;;5094756;28;20535;-72
2023/08/17 04:08:42;;;;;;;1.52;0.88;;;20.40;99.90;;;;;;5094800;28;20192;-71
2023/08/17 04:11:14;;;;;;;1.48;0.60;;;20.30;99.90;;;;;;5094576;28;20224;-72
2023/08/17 04:13:45;;;;;;;1.13;0.80;;;20.30;99.90;;;;;;5094523;28;20220;-72
2023/08/17 04:16:16;;;;;;;1.35;0.70;;;20.30;99.90;;;;;;5094854;28;20185;-72
2023/08/17 04:18:46;;;;;;;1.00;0.60;;;20.30;99.90;;;;;;5094793;28;20659;-72
2023/08/17 04:21:17;;;;;;;1.52;1.00;;;20.20;99.90;;;;;;5094638;28;20184;-72
2023/08/17 04:23:48;;;;;;;1.52;0.90;;;20.10;99.90;;;;;;5094709;28;20641;-72
2023/08/17 04:26:20;;;;;;;1.00;0.60;;;20.00;99.90;;;;;;5094411;28;20200;-71
2023/08/17 04:28:51;;;;;;;0.85;0.70;;;20.10;99.90;;;;;;5094389;28;20210;-72
2023/08/17 04:31:22;;;;;;;0.90;0.80;;;20.10;99.90;;;;;;5094661;28;20192;-72
2023/08/17 04:33:52;;;;;;;1.63;0.77;;;20.10;99.90;;;;;;5094303;28;20572;-72
2023/08/17 04:36:23;;;;;;;1.00;0.70;;;20.00;99.90;;;;;;5094315;28;20674;-73
2023/08/17 04:38:54;;;;;;;1.75;0.65;;;20.00;99.90;;;;;;5094345;28;20250;-72
2023/08/17 04:41:27;;;;;;;1.27;0.70;;;19.90;99.90;;;;;;5094456;28;20632;-72
2023/08/17 04:43:57;;;;;;;1.17;0.73;;;19.90;99.90;;;;;;5094363;28;20188;-71
2023/08/17 04:46:28;;;;;;;2.13;0.70;;;19.90;99.90;;;;;;5094262;28;20644;-72
2023/08/17 04:48:59;;;;;;;1.45;0.70;;;19.90;99.90;;;;;;5094310;28;20200;-72
2023/08/17 04:51:30;;;;;;;2.00;0.57;;;20.00;99.90;;;;;;5094231;28;20195;-72
2023/08/17 04:54:00;;;;;;;1.35;0.70;;;19.90;99.90;;;;;;5094082;28;20189;-72
2023/08/17 04:56:33;;;;;;;1.17;0.80;;;19.90;99.90;;;;;;5093906;28;20197;-72
2023/08/17 04:59:04;;;;;;;0.95;0.60;;;20.00;99.90;;;;;;5094023;28;20200;-73
2023/08/17 05:01:35;;;;;;;3.60;1.20;;;20.00;99.90;;;;;;5093918;28;20188;-72
2023/08/17 05:04:06;;;;;;;0.60;0.60;;;20.10;99.90;;;;;;5093833;28;20254;-72
2023/08/17 05:06:38;;;;;;;1.58;0.52;;;20.30;99.90;;;;;;5093982;28;20192;-72
2023/08/17 05:09:09;;;;;;;0.82;0.65;;;20.20;99.90;;;;;;5093680;28;20192;-72
2023/08/17 05:11:41;;;;;;;2.45;0.52;;;20.10;99.90;;;;;;5093327;28;20243;-72
2023/08/17 05:14:12;;;;;;;2.05;1.23;;;20.00;99.90;;;;;;5093659;28;20750;-72
2023/08/17 05:16:43;;;;;;;5.30;1.38;;;19.90;99.90;;;;;;5093595;28;20201;-72
2023/08/17 05:19:14;;;;;;;4.15;1.20;;;19.90;99.90;;;;;;5093348;28;20501;-72
2023/08/17 05:21:45;;;;;;;3.92;1.25;;;19.80;99.90;;;;;;5093387;28;20191;-73
2023/08/17 05:24:15;;;;;;;2.22;1.10;;;19.80;99.90;;;;;;5081397;28;20208;-73
2023/08/17 05:26:48;;;;;;;5.57;1.23;;;19.60;99.90;;;;;;5072792;28;20189;-73
2023/08/17 05:29:19;;;;;;;2.17;1.25;;;19.40;99.90;;;;;;5072005;28;20192;-73
2023/08/17 05:31:49;;;;;;;2.45;1.20;;;19.20;99.90;;;;;;5072688;28;20193;-73
2023/08/17 05:34:20;;;;;;;2.00;1.10;;;19.00;99.90;;;;;;5073187;28;20276;-73
2023/08/17 05:36:51;;;;;;;2.65;1.30;;;19.00;99.90;;;;;;5073330;28;20196;-73
2023/08/17 05:39:22;;;;;;;3.00;1.20;;;18.80;99.90;;;;;;5073117;28;20195;-73
2023/08/17 05:41:54;;;;;;;2.72;1.20;;;18.70;99.90;;;;;;5073109;28;20225;-73
2023/08/17 05:44:25;;;;;;;1.50;1.20;;;18.70;99.90;;;;;;5073221;28;20564;-73
2023/08/17 05:46:56;;;;;;;3.30;1.20;;;18.50;99.90;;;;;;5073166;28;20185;-74
2023/08/17 05:49:27;;;;;;;1.67;1.00;;;18.40;99.90;;;;;;5073138;28;20188;-73
2023/08/17 05:51:58;;;;;;;2.20;1.10;;;18.30;99.90;;;;;;5073096;28;20199;-73
2023/08/17 05:54:28;;;;;;;3.10;1.30;;;18.20;99.90;;;;;;5072606;28;20196;-73
2023/08/17 05:57:01;;;;;;;5.93;1.27;;;18.20;99.90;;;;;;5072270;28;20549;-72
2023/08/17 05:59:32;;;;;;;2.45;1.30;;;18.10;99.90;;;;;;5073090;28;20189;-73
2023/08/17 06:02:02;;;;;;;3.03;1.30;;;18.10;99.90;;;;;;5072615;28;20185;-73
2023/08/17 06:04:33;;;;;;;1.85;1.20;;;18.10;99.90;;;;;;5072924;28;20364;-72
2023/08/17 06:07:04;;;;;;;3.08;1.60;;;18.10;99.90;;;;;;5072732;28;20189;-73
2023/08/17 06:09:35;;;;;;;2.60;1.42;;;18.10;99.90;;;;;;5072683;28;20189;-73
2023/08/17 06:12:08;;;;;;;2.53;1.10;;;18.10;99.90;;;;;;5072745;28;20233;-72
2023/08/17 06:14:38;;;;;;;1.30;1.10;;;18.00;99.90;;;;;;5072533;28;20225;-72
2023/08/17 06:17:09;;;;;;;2.53;1.20;;;17.90;99.90;;;;;;5072679;28;20193;-72
2023/08/17 06:19:41;;;;;;;1.90;1.20;;;17.90;99.90;;;;;;5072794;28;20193;-72
2023/08/17 06:22:12;;;;;;;3.45;1.30;;;17.90;99.90;;;;;;5072738;28;20229;-72
2023/08/17 06:24:43;;;;;;;1.58;1.10;;;17.90;99.90;;;;;;5072951;28;20189;-73
2023/08/17 06:27:18;;;;;;;1.83;1.20;;;17.90;99.90;;;;;;5072722;28;20189;-72
2023/08/17 06:29:48;;;;;;;1.15;1.00;;;17.90;99.90;;;;;;5072108;28;20196;-73
2023/08/17 06:32:19;;;;;;;2.63;1.02;;;17.80;99.90;;;;;;5071634;28;20185;-73
2023/08/17 06:34:50;;;;;;;2.05;0.88;;;17.70;99.90;;;;;;5072251;28;20190;-72
2023/08/17 06:37:21;;;;;;;10.75;1.60;;;17.60;99.90;;;;;;5075991;28;20551;-72
2023/08/17 06:39:51;;;;;;;4.00;1.52;;;17.40;99.90;;;;;;5076355;28;20189;-73
2023/08/17 06:42:24;;;;;;;2.42;1.90;;;17.30;99.90;;;;;;5076401;28;20276;-73
2023/08/17 06:44:55;;;;;;;3.28;2.30;;;17.30;99.90;;;;;;5076384;28;20193;-72
2023/08/17 06:47:25;;;;;;;3.95;2.20;;;17.30;99.90;;;;;;5076308;28;20296;-72
2023/08/17 06:49:57;;;;;;;2.28;1.17;;;17.30;99.90;;;;;;5076026;28;20189;-73
2023/08/17 06:52:28;;;;;;;2.53;1.10;;;17.20;99.90;;;;;;5076343;28;20556;-71
2023/08/17 06:54:59;;;;;;;2.20;1.40;;;17.10;99.90;;;;;;5076090;28;20196;-72
2023/08/17 06:57:31;;;;;;;1.40;1.30;;;17.10;99.90;;;;;;5076087;28;20522;-72
2023/08/17 07:00:04;;;;;;;1.98;1.33;;;17.00;99.90;;;;;;5075963;28;20193;-72
2023/08/17 07:02:35;;;;;;;1.30;1.10;;;17.00;99.90;;;;;;5074815;28;20649;-72
2023/08/17 07:05:07;;;;;;;1.73;1.20;;;16.90;99.90;;;;;;5075938;28;20189;-72
2023/08/17 07:07:39;;;;;;;2.42;1.20;;;16.90;99.90;;;;;;5075980;28;20185;-72
2023/08/17 07:10:10;;;;;;;1.80;1.00;;;16.80;99.90;;;;;;5075639;28;20284;-72
2023/08/17 07:12:42;;;;;;;1.08;0.98;;;16.80;99.90;;;;;;5075651;28;20311;-73
2023/08/17 07:15:15;;;;;;;1.38;1.00;;;16.70;99.90;;;;;;5075560;28;20189;-72
2023/08/17 07:17:45;;;;;;;3.65;1.10;;;16.60;99.90;;;;;;5075974;28;20193;-72
2023/08/17 07:20:16;;;;;;;1.80;1.00;;;16.60;99.90;;;;;;5075587;28;20708;-73
2023/08/17 07:22:47;;;;;;;2.15;1.25;;;16.50;99.90;;;;;;5075726;28;20223;-72
2023/08/17 07:25:18;;;;;;;3.25;2.03;;;16.40;99.90;;;;;;5075903;28;20525;-72
2023/08/17 07:27:50;;;;;;;3.35;1.48;;;16.40;99.90;;;;;;5075512;28;20185;-72
2023/08/17 07:30:21;;;;;;;2.35;1.25;;;16.30;99.90;;;;;;5075432;28;20189;-72
2023/08/17 07:32:52;;;;;;;1.35;0.82;;;16.30;99.90;;;;;;5075431;28;20199;-72
2023/08/17 07:35:22;;;;;;;2.08;1.30;;;16.20;99.90;;;;;;5075672;28;20189;-72
2023/08/17 07:37:53;;;;;;;2.40;1.10;;;16.20;99.90;;;;;;5075246;28;20188;-72
2023/08/17 07:40:24;;;;;;;1.30;1.20;;;16.10;99.90;;;;;;5075390;28;20184;-72
2023/08/17 07:42:57;;;;;;;1.17;1.08;;;16.10;99.90;;;;;;5075227;28;20229;-72
2023/08/17 07:45:27;;;;;;;1.67;1.20;;;16.10;99.90;;;;;;5075321;28;20196;-72
2023/08/17 07:47:58;;;;;;;3.05;1.25;;;16.00;99.90;;;;;;5074064;28;20196;-72
2023/08/17 07:50:29;;;;;;;2.67;1.48;;;16.00;99.90;;;;;;5075303;28;20189;-73
2023/08/17 07:52:59;;;;;;;2.58;1.20;;;15.90;99.90;;;;;;5075213;28;20193;-72
2023/08/17 07:55:30;;;;;;;1.67;1.33;;;15.90;99.90;;;;;;5075208;28;20192;-73
2023/08/17 07:58:03;;;;;;;1.95;1.40;;;15.90;99.90;;;;;;5082823;28;20553;-72
2023/08/17 08:00:34;;;;;;;1.50;1.23;;;15.80;99.90;;;;;;5092515;28;20283;-72
2023/08/17 08:03:04;;;;;;;3.40;1.25;;;15.80;99.90;;;;;;5074863;28;20224;-73
2023/08/17 08:05:35;;;;;;;1.15;1.05;;;15.70;99.90;;;;;;5080431;28;20212;-72
2023/08/17 08:08:07;;;;;;;3.08;1.10;;;15.70;99.90;;;;;;5074413;28;20196;-72
2023/08/17 08:10:37;;;;;;;3.80;1.20;;;15.70;99.90;;;;;;5075563;28;20737;-72
2023/08/17 08:13:10;;;;;;;1.42;1.10;;;15.70;99.90;;;;;;5075442;28;20224;-72
2023/08/17 08:15:41;;;;;;;2.08;1.10;;;15.60;99.90;;;;;;5082587;28;20203;-72
2023/08/17 08:18:11;;;;;;;3.38;1.50;;;15.60;99.90;;;;;;5075826;28;20201;-72
2023/08/17 08:20:42;;;;;;;2.17;1.10;;;15.60;99.90;;;;;;5081666;28;20197;-72
2023/08/17 08:23:13;;;;;;;2.63;1.20;;;15.60;99.90;;;;;;5082534;28;20722;-72
2023/08/17 08:25:44;;;;;;;3.03;1.48;;;15.60;99.90;;;;;;5077484;28;20189;-72
2023/08/17 08:28:16;;;;;;;1.13;1.02;;;15.60;99.90;;;;;;5079042;28;20205;-72
2023/08/17 08:30:47;;;;;;;2.03;1.10;;;15.60;99.90;;;;;;5074108;28;20197;-72
2023/08/17 08:33:18;;;;;;;1.42;1.10;;;15.60;99.90;;;;;;5076987;28;20196;-73
2023/08/17 08:35:49;;;;;;;2.03;1.40;;;15.60;99.90;;;;;;5082208;28;20197;-72
2023/08/17 08:38:20;;;;;;;2.67;1.10;;;15.50;99.90;;;;;;5078441;28;20664;-72
2023/08/17 08:40:51;;;;;;;3.88;1.10;;;15.50;99.90;;;;;;5074807;28;20193;-72
2023/08/17 08:43:23;;;;;;;3.97;1.08;;;15.50;99.90;;;;;;5078589;28;20580;-73
2023/08/17 08:45:56;;;;;;;1.77;1.20;;;15.50;99.90;;;;;;5077083;28;20208;-72
2023/08/17 08:48:31;;;;;;;1.65;1.10;;;15.50;99.90;;;;;;5083768;28;20603;-72
2023/08/17 08:51:06;;;;;;;2.15;1.30;;;15.50;99.90;;;;;;5084433;28;20283;-72
2023/08/17 08:53:45;;;;;;;3.60;1.40;;;15.50;99.90;;;;;;5090364;28;20253;-72
2023/08/17 08:56:18;;;;;;;1.65;1.27;;;15.60;99.90;;;;;;5075099;28;20211;-72
2023/08/17 08:58:51;;;;;;;3.33;1.60;;;15.60;99.90;;;;;;5079651;28;20193;-72
2023/08/17 09:01:22;;;;;;;2.50;1.42;;;15.60;99.90;;;;;;5077181;28;20193;-72
2023/08/17 09:03:54;;;;;;;1.90;1.48;;;15.50;99.90;;;;;;5079823;28;20216;-72
2023/08/17 09:06:28;;;;;;;3.15;1.67;;;15.50;99.90;;;;;;5084834;28;20291;-72
2023/08/17 09:09:00;;;;;;;2.35;1.70;;;15.50;99.90;;;;;;5088032;28;20203;-72
2023/08/17 09:11:32;;;;;;;2.40;1.75;;;15.40;99.90;;;;;;5075736;28;20385;-72
2023/08/17 09:14:05;;;;;;;2.45;1.80;;;15.40;99.90;;;;;;5076470;28;20215;-72
2023/08/17 09:16:36;;;;;;;4.75;1.70;;;15.40;99.90;;;;;;5080542;28;20265;-72
2023/08/17 09:19:07;;;;;;;4.53;1.80;;;15.40;99.90;;;;;;5077355;28;20691;-72
2023/08/17 09:21:37;;;;;;;2.75;1.50;;;15.30;99.90;;;;;;5085508;28;20200;-72
2023/08/17 09:24:11;;;;;;;2.80;1.60;;;15.30;99.90;;;;;;5085405;28;20239;-72
2023/08/17 09:26:42;;;;;;;2.60;1.77;;;15.30;99.90;;;;;;5081238;28;20188;-72
2023/08/17 09:29:23;;;;;;;3.83;1.75;;;15.20;99.90;;;;;;5086454;28;20200;-72
2023/08/17 09:31:54;;;;;;;2.85;1.60;;;15.20;99.90;;;;;;5085152;28;20200;-72
2023/08/17 09:34:24;;;;;;;1.95;1.45;;;15.20;99.90;;;;;;5078221;28;20560;-72
2023/08/17 09:36:55;;;;;;;5.30;1.45;;;15.20;99.90;;;;;;5079424;28;20197;-72
2023/08/17 09:39:26;;;;;;;2.42;1.70;;;15.20;99.90;;;;;;5086721;28;20199;-73
2023/08/17 09:41:59;;;;;;;2.63;1.50;;;15.20;99.90;;;;;;5079599;28;20200;-72
2023/08/17 09:44:31;;;;;;;2.40;1.23;;;15.30;99.90;;;;;;5083123;28;20223;-72
2023/08/17 09:47:02;;;;;;;2.95;1.50;;;15.30;99.90;;;;;;5080737;28;20192;-72
2023/08/17 09:49:35;;;;;;;2.15;1.60;;;15.30;99.90;;;;;;5084022;28;20199;-72
2023/08/17 09:52:06;;;;;;;3.22;1.75;;;15.30;99.90;;;;;;5081220;28;20199;-72
2023/08/17 09:54:38;;;;;;;5.07;2.50;;;15.30;99.90;;;;;;5079412;28;20204;-72
2023/08/17 09:57:08;;;;;;;4.00;2.65;;;15.30;99.90;;;;;;5072729;28;20250;-71
2023/08/17 09:59:41;;;;;;;4.70;2.35;;;15.20;99.90;;;;;;5083682;28;20578;-72
2023/08/17 10:02:20;;;;;;;5.82;3.35;;;15.20;99.90;;;;;;5083259;28;20624;-72
2023/08/17 10:04:54;;;;;;;2.67;2.38;;;15.20;99.90;;;;;;5073562;28;20224;-70
2023/08/17 10:07:30;;;;;;;4.05;2.10;;;15.30;99.90;;;;;;5074414;28;20196;-72
2023/08/17 10:10:05;;;;;;;3.33;1.98;;;15.40;99.90;;;;;;5076409;28;20573;-71
2023/08/17 10:12:47;;;;;;;2.83;1.88;;;15.40;99.90;;;;;;5087315;28;20242;-71
2023/08/17 10:15:21;;;;;;;2.67;1.80;;;15.40;99.90;;;;;;5084269;28;20597;-71
2023/08/17 10:18:01;;;;;;;3.47;1.80;;;15.50;99.90;;;;;;5084954;28;20561;-71
2023/08/17 10:20:33;;;;;;;2.95;1.70;;;15.50;99.90;;;;;;5084899;28;20197;-71
2023/08/17 10:23:13;;;;;;;3.33;1.67;;;15.50;99.90;;;;;;5079200;28;20623;-70
2023/08/17 10:25:44;;;;;;;2.72;1.60;;;15.50;99.90;;;;;;5077692;28;20203;-71
2023/08/17 10:28:16;;;;;;;2.47;1.70;;;15.40;99.90;;;;;;5076457;28;20193;-71
2023/08/17 10:30:48;;;;;;;3.25;1.50;;;15.40;99.90;;;;;;5076551;28;20658;-71
2023/08/17 10:33:20;;;;;;;2.05;1.60;;;15.40;99.90;;;;;;5076301;28;20679;-71
2023/08/17 10:35:51;;;;;;;2.15;1.70;;;15.40;99.90;;;;;;5087022;28;20200;-72
2023/08/17 10:38:22;;;;;;;2.38;1.88;;;15.40;99.90;;;;;;5086470;28;20199;-72
2023/08/17 10:41:12;;;;;;;2.05;1.65;;;15.30;99.90;;;;;;5087253;28;20654;-70
2023/08/17 10:43:59;;;;;;;1.63;1.48;;;15.30;99.90;;;;;;5085098;28;20228;-70
2023/08/17 10:46:43;;;;;;;4.05;1.63;;;15.30;99.90;;;;;;5090335;28;20199;-70
2023/08/17 10:49:28;;;;;;;5.35;1.70;;;15.30;99.90;;;;;;5091609;28;20195;-71
2023/08/17 10:52:06;;;;;;;3.72;2.08;;;15.30;99.90;;;;;;5089742;28;20192;-71
2023/08/17 10:54:41;;;;;;;1.88;1.60;;;15.20;99.90;;;;;;5080767;28;20196;-71
2023/08/17 10:57:35;;;;;;;2.67;1.75;;;15.20;99.90;;;;;;5085299;28;20195;-71
2023/08/17 11:00:20;;;;;;;2.78;1.90;;;15.20;99.90;;;;;;5078425;28;20561;-71
2023/08/17 11:02:58;;;;;;;2.70;2.00;;;15.20;99.90;;;;;;5079019;28;20201;-71
2023/08/17 11:05:46;;;;;;;2.53;1.80;;;15.20;99.90;;;;;;5084924;28;20227;-72
2023/08/17 11:08:25;;;;;;;3.17;1.90;;;15.10;99.90;;;;;;5091212;28;20236;-72
2023/08/17 11:11:05;;;;;;;3.47;1.83;;;15.10;99.90;;;;;;5076123;28;20231;-71
2023/08/17 11:13:37;;;;;;;2.83;1.90;;;15.00;99.90;;;;;;5077421;28;20293;-71
2023/08/17 11:16:08;;;;;;;3.63;1.80;;;14.90;99.90;;;;;;5081812;28;20212;-72
2023/08/17 11:18:42;;;;;;;3.30;1.77;;;14.90;99.90;;;;;;5076534;28;20188;-71
2023/08/17 11:21:14;;;;;;;3.50;1.90;;;14.80;99.90;;;;;;5075804;28;20197;-72
2023/08/17 11:23:45;;;;;;;3.00;1.95;;;14.80;99.90;;;;;;5080625;28;20572;-71
2023/08/17 11:26:18;;;;;;;3.20;2.03;;;14.80;99.90;;;;;;5087603;28;20196;-72
2023/08/17 11:28:49;;;;;;;2.47;2.03;;;14.70;99.90;;;;;;5080270;28;20205;-71
2023/08/17 11:31:20;;;;;;;2.88;2.30;;;14.80;99.90;;;;;;5078889;28;20196;-72
2023/08/17 11:33:53;;;;;;;4.07;2.50;;;14.70;99.90;;;;;;5080386;28;20189;-72
2023/08/17 11:36:25;;;;;;;2.92;2.13;;;14.70;99.90;;;;;;5085610;28;20193;-69
2023/08/17 11:38:56;;;;;;;4.00;2.60;;;14.70;99.90;;;;;;5092614;28;20207;-70
2023/08/17 11:41:27;;;;;;;4.25;3.15;;;14.70;99.90;;;;;;5086979;28;20233;-71
2023/08/17 11:43:59;;;;;;;4.85;3.25;;;14.60;99.90;;;;;;5078925;28;20207;-73
2023/08/17 11:46:29;;;;;;;7.45;3.95;;;14.60;99.90;;;;;;5086915;28;20215;-72
2023/08/17 11:49:05;;;;;;;4.25;3.20;;;14.60;99.90;;;;;;5092756;28;20195;-71
2023/08/17 11:51:36;;;;;;;4.20;3.33;;;14.50;99.90;;;;;;5089029;28;20215;-71
2023/08/17 11:54:07;;;;;;;5.05;3.50;;;14.40;99.90;;;;;;5083677;28;20600;-73
2023/08/17 11:56:39;;;;;;;7.03;3.20;;;14.40;99.90;;;;;;5085276;28;20204;-70
2023/08/17 11:59:13;;;;;;;5.88;3.65;;;14.30;99.90;;;;;;5072297;28;20637;-73
2023/08/17 12:01:44;;;;;;;4.43;3.30;;;14.20;99.90;;;;;;5075344;28;20671;-72
2023/08/17 12:04:17;;;;;;;4.45;3.42;;;14.20;99.90;;;;;;5083952;28;20215;-72
2023/08/17 12:06:49;;;;;;;6.15;3.97;;;14.20;99.90;;;;;;5093655;28;20636;-73
2023/08/17 12:09:21;;;;;;;6.53;4.10;;;14.20;99.90;;;;;;5077088;28;20571;-72
2023/08/17 12:11:56;;;;;;;6.85;4.10;;;14.20;99.90;;;;;;5083834;28;20228;-72
2023/08/17 12:14:30;;;;;;;6.15;3.85;;;14.20;99.90;;;;;;5073193;28;20192;-72
2023/08/17 12:17:01;;;;;;;7.50;4.13;;;14.20;99.90;;;;;;5079189;28;20208;-73
2023/08/17 12:19:33;;;;;;;8.68;4.00;;;14.20;99.90;;;;;;5080269;28;20671;-72
2023/08/17 12:22:06;;;;;;;6.80;4.55;;;14.20;99.90;;;;;;5074472;28;20189;-71
2023/08/17 12:24:36;;;;;;;5.53;4.45;;;14.20;99.90;;;;;;5074442;28;20217;-73
2023/08/17 12:27:09;;;;;;;8.50;4.90;;;14.20;99.90;;;;;;5074479;28;20235;-72
2023/08/17 12:29:50;;;;;;;7.22;4.50;;;14.20;99.90;;;;;;5091234;28;20302;-73
2023/08/17 12:32:22;;;;;;;6.03;4.03;;;14.10;99.90;;;;;;5078035;28;20210;-72
2023/08/17 12:34:55;;;;;;;6.35;3.60;;;14.10;99.90;;;;;;5078379;28;20200;-72
2023/08/17 12:37:25;;;;;;;5.65;3.88;;;14.10;99.90;;;;;;5089740;28;20559;-72
2023/08/17 12:39:56;;;;;;;5.00;3.50;;;14.00;99.90;;;;;;5079665;28;20652;-72
2023/08/17 12:42:27;;;;;;;6.60;3.58;;;14.00;99.90;;;;;;5081442;28;20193;-73
2023/08/17 12:44:58;;;;;;;6.78;3.60;;;14.00;99.90;;;;;;5080584;28;20583;-72
2023/08/17 12:47:28;;;;;;;7.72;3.50;;;13.90;99.90;;;;;;5085555;28;20208;-72
2023/08/17 12:50:03;;;;;;;5.13;3.30;;;14.00;99.90;;;;;;5074160;28;20196;-72
2023/08/17 12:52:34;;;;;;;8.85;3.53;;;14.00;99.90;;;;;;5088799;28;20196;-73
2023/08/17 12:55:04;;;;;;;4.18;3.40;;;13.90;99.90;;;;;;5074987;28;20287;-73
2023/08/17 12:57:35;;;;;;;6.30;3.63;;;13.90;99.90;;;;;;5079980;28;20204;-72
2023/08/17 13:00:06;;;;;;;5.47;3.97;;;13.90;99.90;;;;;;5089073;28;20196;-72
2023/08/17 13:02:37;;;;;;;6.00;3.63;;;13.90;99.90;;;;;;5083853;28;20647;-72
2023/08/17 13:05:10;;;;;;;7.00;3.95;;;13.90;99.90;;;;;;5073195;28;20227;-72
2023/08/17 13:07:41;;;;;;;6.78;4.53;;;13.90;99.90;;;;;;5085270;28;20192;-72
2023/08/17 13:10:12;;;;;;;8.00;5.57;;;13.90;99.90;;;;;;5077239;28;20590;-72
2023/08/17 13:12:42;;;;;;;10.60;5.10;;;13.80;99.90;;;;;;5092011;28;20212;-73